Saturday, August 18, 2018, 3:47 PM EDT
Back to Local

KPOU, Poughkeepsie Dutchess Cty

Location: Wappingers Falls, NY, United States Lat: 41.633
Local Time: 3:47 PM EDT (19:47 GMT) Lon: -73.883
Time Zone: US/Eastern Elev: 167 ft

Show me the last for .
Show Decoded

2018-08-18 15:31 METAR KPOU 181931Z 36007KT 3SM VCTS RA BR FEW008 BKN028 OVC050 22/21 A2979 RMK
                 AO2 WSHFT 1845 LTG DSNT NE AND E AND SW RAB06 TSB1855E1858E29 P0034 T02220211 $
                 =
2018-08-18 15:20 METAR KPOU 181920Z 34008KT 1 1/2SM TSRA BR FEW009 BKN024 OVC050 22/21 A2979 RMK
                 AO2 WSHFT 1845 LTG DSNT NE AND E AND SW RAB06 TSB1855E1858 P0021 T02220206 $ =
2018-08-18 15:08 METAR KPOU 181908Z 32012G20KT 1/2SM TSRA FG SCT009 BKN023 OVC032 23/21 A2980 RMK
                 AO2 WSHFT 1845 LTG DSNT ALQDS RAB06 TSB1855E1858 P0004 T02280206 =
2018-08-18 15:06 METAR KPOU 181906Z 31016G20KT 2SM -TSRA SCT009 BKN023 OVC047 23/21 A2981 RMK AO2
                 WSHFT 1845 LTG DSNT ALQDS RAB06 TSB1855E1858 P0001 T02330206 =
2018-08-18 15:04 METAR KPOU 181904Z 32011G18KT 10SM TS FEW009 BKN030 OVC047 23/21 A2980 RMK AO2
                 WSHFT 1845 LTG DSNT ALQDS TSB1855E1858 PRESRR T02330206 =
2018-08-18 14:53 METAR KPOU 181853Z 01012G18KT 10SM VCTS FEW022 SCT032 BKN046 24/20 A2978 RMK AO2
                 LTG DSNT ALQDS SLP081 T02390200 =
2018-08-18 14:34 METAR KPOU 181834Z 21006KT 10SM VCTS SCT048 28/21 A2976 RMK AO2 LTG DSNT ALQDS
                 T02830211 =
2018-08-18 13:53 METAR KPOU 181753Z 24010G16KT 10SM FEW032 29/22 A2977 RMK AO2 LTG DSNT N AND W
                 SLP075 T02940217 10294 20233 58017 =
2018-08-18 12:53 METAR KPOU 181653Z VRB05KT 10SM FEW029 28/21 A2979 RMK AO2 SLP082 T02780211 =
2018-08-18 11:53 METAR KPOU 181553Z 23007KT 10SM FEW021 27/22 A2980 RMK AO2 SLP088 T02720217 =
2018-08-18 10:53 METAR KPOU 181453Z 18005KT 10SM FEW015 FEW100 26/22 A2982 RMK AO2 SLP092
                 T02610222 58007 =
2018-08-18 09:53 METAR KPOU 181353Z 23007KT 10SM CLR 24/22 A2983 RMK AO2 SLP096 T02440217 =
2018-08-18 08:53 METAR KPOU 181253Z 23008KT 10SM CLR 24/22 A2983 RMK AO2 SLP097 T02390217 =
2018-08-18 08:01 METAR KPOU 181201Z 21005KT 10SM SCT008 BKN020 23/21 A2984 RMK AO2 T02330211 =
2018-08-18 07:53 METAR KPOU 181153Z 21004KT 10SM CLR 23/22 A2984 RMK AO2 SLP100 70192 T02330217
                 10233 20222 58003 =
2018-08-18 06:53 METAR KPOU 181053Z 22003KT 10SM BKN070 BKN085 23/21 A2984 RMK AO2 SLP102
                 T02280211 =
2018-08-18 05:53 METAR KPOU 180953Z AUTO 20003KT 10SM BKN075 OVC090 23/21 A2985 RMK AO2 SLP102
                 T02280211 $ =
2018-08-18 04:53 METAR KPOU 180853Z AUTO 00000KT 10SM BKN110 23/21 A2985 RMK AO2 SLP103 T02280211
                 55012 $ =
2018-08-18 03:53 METAR KPOU 180753Z AUTO 00000KT 10SM FEW120 22/21 A2984 RMK AO2 SLP101 T02220211
                 $ =
2018-08-18 02:53 METAR KPOU 180653Z AUTO 00000KT 10SM CLR 22/21 A2986 RMK AO2 SLP107 T02220211 $
                 =
2018-08-18 01:53 METAR KPOU 180553Z AUTO 12003KT 10SM FEW017 FEW022 SCT080 22/21 A2988 RMK AO2
                 SLP115 60186 T02220211 10239 20222 56014 $ =
2018-08-18 00:53 METAR KPOU 180453Z AUTO 00000KT 10SM BKN055 OVC090 23/21 A2990 RMK AO2 LTG DSNT
                 SE SLP120 T02280211 403110206 $ =
2018-08-18 00:02 METAR KPOU 180402Z AUTO 13003KT 10SM BKN060 OVC080 23/21 A2990 RMK AO2 T02280211
                 $ =
2018-08-17 23:53 METAR KPOU 180353Z AUTO 00000KT 10SM VCTS BKN060 OVC070 23/21 A2991 RMK AO2 LTG
                 DSNT SE AND S SLP123 T02280211 $ =
2018-08-17 22:05 METAR KPOU 180205Z AUTO 21018G50KT 180V240 1/2SM +TSRA FG BKN007 BKN022 OVC080
                 23/22 A2995 RMK AO2 PK WND 24050/0158 LTG DSNT ALQDS PRESRR P0037 T02280217 =
2018-08-17 21:59 METAR KPOU 180159Z AUTO 24026G50KT 1/4SM +TSRA FG SCT007 BKN022 OVC080 22/21
                 A2994 RMK AO2 PK WND 24050/0158 LTG DSNT ALQDS P0018 T02220206 =
2018-08-17 21:55 METAR KPOU 180155Z AUTO 28017G24KT 3/4SM +TSRA BR FEW007 SCT022 BKN045 23/22
                 A2993 RMK AO2 LTG DSNT ALQDS P0005 T02280217 =
2018-08-17 21:53 METAR KPOU 180153Z AUTO 28014G20KT 5SM +RA BR BKN041 BKN080 23/22 A2994 RMK AO2
                 LTG DSNT ALQDS RAB53 TSE14B17 PRESRR SLP134 P0006 T02330217 TSNO =
2018-08-17 21:22 METAR KPOU 180122Z 12003KT 5SM TS BR BKN041 BKN080 23/22 A2992 RMK AO2 LTG DSNT
                 ALQDS TSE14B17 T02330217 =
2018-08-17 21:13 METAR KPOU 180113Z COR 11004KT 5SM TS BR BKN041 BKN080 23/22 A2991 RMK AO2 LTG
                 DSNT ALQDS T02330217 =
2018-08-17 20:53 METAR KPOU 180053Z 18005KT 1 3/4SM TS BR SCT027 BKN046 BKN060 24/22 A2990 RMK
                 AO2 LTG DSNT ALQDS RAB2357E21B28E49 TSB26 SLP122 P0058 T02390222 =
2018-08-17 20:32 METAR KPOU 180032Z VRB05KT 1 3/4SM +TSRA BR SCT027 BKN046 BKN060 24/22 A2992 RMK
                 AO2 LTG DSNT SW AND NW RAB2357E21B28 TSB26 P0047 T02390222 =
2018-08-17 20:23 METAR KPOU 180023Z VRB03KT 1 3/4SM VCTS BR SCT027 BKN046 BKN060 24/22 A2989 RMK
                 AO2 LTG DSNT SW-N RAB2357E21 P0031 T02390222
2018-08-17 20:14 METAR KPOU 180014Z 11006KT 2SM VCTS -RA BR BKN027 BKN046 BKN080 24/22 A2989 RMK
                 AO2 LTG DSNT SW-N RAB2357 P0031 T02440222 =
2018-08-17 20:03 METAR KPOU 180003Z 20008G21KT 1 3/4SM VCTS +RA SCT027 BKN046 BKN060 26/21 A2991
                 RMK AO2 LTG DSNT ALQDS RAB2357 P0013 T02560211 =
2018-08-17 19:53 METAR KPOU 172353Z 17005KT 10SM VCTS FEW045 FEW065 SCT080 26/22 A2989 RMK AO2
                 LTG DSNT ALQDS SLP117 60006 T02610217 10311 20261 55004 =
2018-08-17 18:53 METAR KPOU 172253Z VRB04KT 9SM FEW046 27/23 A2989 RMK AO2 LTG DSNT S RAB2157E18
                 TSE26 SLP119 P0006 T02670228 =
2018-08-17 18:32 METAR KPOU 172232Z 11004KT 7SM FEW031 FEW050 26/24 A2990 RMK AO2 LTG DSNT N AND
                 NE AND S RAB2157E18 TSE26 P0006 T02610239 =
2018-08-17 18:05 METAR KPOU 172205Z 2 1/2SM TSRA FEW032 BKN050 BKN070 27/23 A2989 RMK AO2 LTG
                 DSNT NE AND S RAB2157 P0006 T02720228 =
2018-08-17 17:53 METAR KPOU 172153Z VRB05KT 9SM TS FEW039 SCT050 BKN070 29/23 A2990 RMK AO2 LTG
                 DSNT NE AND S AND SW TSB49 SLP121 T02890233 =
2018-08-17 17:32 METAR KPOU 172132Z 15005KT 9SM VCTS FEW038 FEW046 29/23 A2990 RMK AO2 LTG DSNT N
                 AND SW T02890233 =
2018-08-17 16:53 METAR KPOU 172053Z 14004KT 10SM FEW100 29/22 A2992 RMK AO2 LTG DSNT NW SLP126
                 T02890222 56023 =
2018-08-17 15:53 METAR KPOU 171953Z 15003KT 5SM HZ FEW041 28/22 A2993 RMK AO2 LTG DSNT W-NE
                 TSB19E38 SLP130 T02780222 =

Support USWX by starting your Amazon purchase here.